Time;durP1;ratioP1;P1;durP2;ratioP2;P2;SDS_P1;SDS_P2;PMS_P1;PMS_P2;Temp;Humidity;BMP_temperature;BMP_pressure;BME280_temperature;BME280_humidity;BME280_pressure;Samples;Min_cycle;Max_cycle;Signal;HPM_P1;HPM_P2
2022/11/16 00:02:20;;;;;;;0.00;0.00;;;;;;;7.39;100.00;98027.22;6233420;22;20346;-76
2022/11/16 00:04:45;;;;;;;0.00;0.00;;;;;;;7.38;100.00;98012.84;6256570;22;19991;-76
2022/11/16 00:07:28;;;;;;;0.00;0.00;;;;;;;7.29;100.00;98020.09;6259548;22;20672;-76
2022/11/16 00:09:54;;;;;;;0.00;0.00;;;;;;;7.19;100.00;98031.19;6256953;22;20209;-75
2022/11/16 00:12:29;;;;;;;;;;;;;;;;;;;;;
2022/11/16 00:14:55;;;;;;;0.00;0.00;;;;;;;6.90;100.00;98024.13;6256154;22;20024;-74
2022/11/16 00:17:25;;;;;;;0.00;0.00;;;;;;;6.76;100.00;98008.63;6255074;22;20016;-75
2022/11/16 00:19:51;;;;;;;0.00;0.00;;;;;;;6.79;100.00;98028.91;6231616;22;20019;-75
2022/11/16 00:22:17;;;;;;;0.00;0.00;;;;;;;6.73;100.00;98030.94;6230369;22;20351;-75
2022/11/16 00:24:42;;;;;;;0.00;0.00;;;;;;;6.70;100.00;98031.56;6232435;22;20007;-75
2022/11/16 00:27:08;;;;;;;0.00;0.00;;;;;;;6.65;100.00;98018.03;6227905;22;20011;-76
2022/11/16 00:29:33;;;;;;;0.00;0.00;;;;;;;6.63;100.00;98017.56;6256901;22;19999;-76
2022/11/16 00:32:02;;;;;;;0.00;0.00;;;;;;;6.58;100.00;98006.78;6281202;22;20007;-75
2022/11/16 00:34:27;;;;;;;0.00;0.00;;;;;;;6.57;100.00;98024.16;6257372;22;20009;-76
2022/11/16 00:36:53;;;;;;;0.00;0.00;;;;;;;6.54;100.00;98035.63;6253911;22;20008;-77
2022/11/16 00:39:21;;;;;;;0.00;0.00;;;;;;;6.53;100.00;98034.81;6228170;22;20019;-77
2022/11/16 00:41:49;;;;;;;0.03;0.03;;;;;;;6.55;100.00;98029.09;6280485;22;20028;-77
2022/11/16 00:44:18;;;;;;;0.00;0.00;;;;;;;6.49;100.00;98019.44;6226329;22;20012;-77
2022/11/16 00:46:43;;;;;;;0.00;0.00;;;;;;;6.46;100.00;98013.47;6230999;22;20004;-77
2022/11/16 00:49:09;;;;;;;0.00;0.00;;;;;;;6.54;100.00;98022.03;6227569;22;20447;-77
2022/11/16 00:51:35;;;;;;;0.03;0.03;;;;;;;6.54;100.00;98022.03;6252738;22;20027;-76
2022/11/16 00:54:03;;;;;;;0.00;0.00;;;;;;;6.56;100.00;98009.00;6214529;23;20043;-76
2022/11/16 00:56:31;;;;;;;0.00;0.00;;;;;;;6.61;100.00;98012.41;6223371;23;20030;-76
2022/11/16 00:59:02;;;;;;;0.00;0.00;;;;;;;6.60;100.00;98005.38;6199724;23;20004;-77
2022/11/16 01:01:28;;;;;;;0.00;0.00;;;;;;;6.51;100.00;98006.34;6221251;23;19995;-77
2022/11/16 01:03:54;;;;;;;0.00;0.00;;;;;;;6.40;100.00;98003.81;6225618;23;20315;-77
2022/11/16 01:06:22;;;;;;;0.00;0.00;;;;;;;6.42;100.00;98008.94;6193474;23;20062;-76
2022/11/16 01:08:48;;;;;;;0.00;0.00;;;;;;;6.46;100.00;98010.75;6199574;23;20012;-77
2022/11/16 01:14:08;;;;;;;0.00;0.00;;;;;;;6.38;100.00;98003.31;6226244;23;20019;-77
2022/11/16 01:16:33;;;;;;;0.00;0.00;;;;;;;6.35;100.00;98014.78;6248219;23;20008;-77
2022/11/16 01:18:59;;;;;;;0.00;0.00;;;;;;;6.36;100.00;98010.13;6173213;23;20000;-77
2022/11/16 01:21:24;;;;;;;0.00;0.00;;;;;;;6.33;100.00;98010.72;6199143;23;20051;-78
2022/11/16 01:23:51;;;;;;;0.00;0.00;;;;;;;6.28;100.00;98003.47;6171663;23;20020;-77
2022/11/16 01:26:17;;;;;;;0.00;0.00;;;;;;;6.21;100.00;98001.13;6199975;23;20011;-78
2022/11/16 01:28:43;;;;;;;0.00;0.00;;;;;;;6.21;100.00;97993.00;6222485;23;20008;-78
2022/11/16 01:31:09;;;;;;;0.00;0.00;;;;;;;6.15;100.00;97991.47;6176561;23;19988;-78
2022/11/16 01:33:35;;;;;;;0.03;0.03;;;;;;;6.10;100.00;97986.94;6250110;23;20048;-79
2022/11/16 01:36:01;;;;;;;0.00;0.00;;;;;;;6.08;100.00;97978.28;6225827;23;20102;-80
2022/11/16 01:38:27;;;;;;;0.00;0.00;;;;;;;5.97;100.00;97971.41;6201921;23;20335;-78
2022/11/16 01:40:52;;;;;;;0.00;0.00;;;;;;;5.95;100.00;97973.56;6224278;23;20379;-78
2022/11/16 01:43:22;;;;;;;0.00;0.00;;;;;;;5.95;100.00;97979.00;6201566;23;20378;-78
2022/11/16 01:45:48;;;;;;;0.00;0.00;;;;;;;5.88;100.00;97975.84;6225816;23;20372;-79
2022/11/16 01:48:23;;;;;;;0.00;0.00;;;;;;;5.88;100.00;97981.28;6198881;23;20008;-77
2022/11/16 01:50:50;;;;;;;0.00;0.00;;;;;;;5.86;100.00;97969.94;6223871;23;20423;-76
2022/11/16 01:53:15;;;;;;;0.00;0.00;;;;;;;5.86;100.00;97975.38;6250746;23;20003;-77
2022/11/16 01:55:43;;;;;;;0.00;0.00;;;;;;;5.81;100.00;97961.88;6199896;23;20011;-78
2022/11/16 01:58:15;;;;;;;0.00;0.00;;;;;;;5.76;100.00;97963.53;6225285;23;19999;-77
2022/11/16 02:00:41;;;;;;;0.00;0.00;;;;;;;5.83;100.00;97973.25;6225368;23;20060;-76
2022/11/16 02:03:06;;;;;;;0.00;0.00;;;;;;;5.84;100.00;97974.81;6196932;23;20039;-78
2022/11/16 02:05:54;;;;;;;0.00;0.00;;;;;;;5.93;100.00;97956.81;6201665;23;20469;-78
2022/11/16 02:11:38;;;;;;;0.00;0.00;;;;;;;6.01;100.00;97961.56;6253736;23;20046;-78
2022/11/16 02:14:10;;;;;;;0.00;0.00;;;;;;;6.04;100.00;97960.97;6225100;23;20010;-78
2022/11/16 02:16:52;;;;;;;0.00;0.00;;;;;;;6.06;100.00;97957.97;6222271;23;20443;-79
2022/11/16 02:20:03;;;;;;;0.00;0.00;;;;;;;6.15;100.00;97963.50;6251444;23;20003;-78
2022/11/16 02:23:06;;;;;;;0.00;0.00;;;;;;;6.29;100.00;97959.75;6159955;23;20017;-78
2022/11/16 02:25:50;;;;;;;0.00;0.00;;;;;;;6.42;100.00;97965.50;6160725;23;20089;-78
2022/11/16 02:28:54;;;;;;;0.00;0.00;;;;;;;6.54;100.00;97963.13;6206696;23;20063;-76
2022/11/16 02:31:46;;;;;;;0.00;0.00;;;;;;;6.59;100.00;97954.88;6217447;23;20000;-75
2022/11/16 02:34:16;;;;;;;0.00;0.00;;;;;;;6.71;100.00;97967.16;6214014;23;20135;-76
2022/11/16 02:36:48;;;;;;;0.00;0.00;;;;;;;6.75;100.00;97949.16;6222957;23;20001;-75
2022/11/16 02:39:22;;;;;;;0.00;0.00;;;;;;;6.78;100.00;97957.50;6227318;23;20000;-75
2022/11/16 02:41:49;;;;;;;0.00;0.00;;;;;;;6.87;100.00;97956.81;6227969;23;20315;-77
2022/11/16 02:44:21;;;;;;;0.00;0.00;;;;;;;6.83;100.00;97937.56;6253034;23;20008;-76
2022/11/16 02:46:53;;;;;;;0.00;0.00;;;;;;;6.78;100.00;97945.84;6247256;23;20069;-76
2022/11/16 02:49:19;;;;;;;0.00;0.00;;;;;;;6.66;100.00;97948.22;6219260;23;20042;-76
2022/11/16 02:51:46;;;;;;;0.00;0.00;;;;;;;6.51;100.00;97941.19;6196489;23;20506;-75
2022/11/16 02:54:20;;;;;;;0.00;0.00;;;;;;;6.36;100.00;97932.22;6197881;23;20414;-76
2022/11/16 02:57:01;;;;;;;0.00;0.00;;;;;;;6.39;100.00;97936.25;6249235;23;20007;-75
2022/11/16 02:59:43;;;;;;;0.00;0.00;;;;;;;6.37;100.00;97936.53;6221569;23;20186;-75
2022/11/16 03:03:01;;;;;;;0.00;0.00;;;;;;;6.27;100.00;97940.22;6224607;23;20008;-74
2022/11/16 03:05:32;;;;;;;0.00;0.00;;;;;;;6.19;100.00;97940.94;6229763;23;20007;-74
2022/11/16 03:08:25;;;;;;;0.00;0.00;;;;;;;6.15;100.00;97939.09;6219849;23;20008;-75
2022/11/16 03:13:42;;;;;;;0.00;0.00;;;;;;;6.40;100.00;97935.94;6246378;23;20011;-74
2022/11/16 03:16:34;;;;;;;0.00;0.00;;;;;;;6.51;100.00;97924.91;6226171;23;20042;-75
2022/11/16 03:19:07;;;;;;;0.00;0.00;;;;;;;6.62;100.00;97921.69;6229683;23;20030;-75
2022/11/16 03:21:45;;;;;;;0.00;0.00;;;;;;;6.69;100.00;97929.44;6252781;22;20031;-76
2022/11/16 03:24:10;;;;;;;0.00;0.00;;;;;;;6.66;100.00;97916.47;6228900;23;20083;-76
2022/11/16 03:26:59;;;;;;;0.00;0.00;;;;;;;6.67;100.00;97918.06;6200105;23;20077;-75
2022/11/16 03:29:41;;;;;;;0.00;0.00;;;;;;;6.68;100.00;97916.16;6225984;23;19996;-73
2022/11/16 03:32:17;;;;;;;0.00;0.00;;;;;;;6.69;100.00;97910.44;6230089;23;20022;-74
2022/11/16 03:34:52;;;;;;;0.00;0.00;;;;;;;6.68;100.00;97916.97;6254624;23;20007;-75
2022/11/16 03:37:20;;;;;;;0.00;0.00;;;;;;;6.71;100.00;97905.47;6221750;23;20000;-74
2022/11/16 03:39:48;;;;;;;0.00;0.00;;;;;;;6.71;100.00;97902.78;6223838;23;20011;-76
2022/11/16 03:42:17;;;;;;;0.00;0.00;;;;;;;6.69;100.00;97893.31;6248115;23;20008;-75
2022/11/16 03:44:48;;;;;;;0.00;0.00;;;;;;;6.74;100.00;97902.16;6223877;23;20014;-75
2022/11/16 03:47:14;;;;;;;0.00;0.00;;;;;;;6.74;100.00;97901.38;6223627;23;20004;-74
2022/11/16 03:49:44;;;;;;;0.00;0.00;;;;;;;6.72;100.00;97893.53;6198070;23;19999;-78
2022/11/16 03:52:09;;;;;;;0.03;0.03;;;;;;;6.75;100.00;97892.91;6226379;23;20083;-79
2022/11/16 03:54:35;;;;;;;0.00;0.00;;;;;;;6.75;100.00;97883.97;6199865;23;20432;-78
2022/11/16 03:57:01;;;;;;;0.00;0.00;;;;;;;6.84;100.00;97898.44;6248577;23;20027;-80
2022/11/16 03:59:26;;;;;;;0.00;0.00;;;;;;;6.80;100.00;97881.13;6252429;23;20004;-79
2022/11/16 04:01:52;;;;;;;0.00;0.00;;;;;;;6.87;100.00;97880.75;6224180;23;20008;-78
2022/11/16 04:26:14;;;;;;;0.05;0.05;;;;;;;7.32;100.00;97921.63;6245820;23;20034;-77
2022/11/16 04:28:40;;;;;;;0.00;0.00;;;;;;;7.36;100.00;97922.63;6248479;23;20004;-78
2022/11/16 04:39:20;;;;;;;0.00;0.00;;;;;;;7.40;100.00;97906.50;6248078;22;19919;-78
2022/11/16 04:47:05;;;;;;;0.00;0.00;;;;;;;7.47;100.00;97902.22;6250238;22;20035;-78
2022/11/16 04:47:18;;;;;;;0.00;0.00;;;;;;;7.50;100.00;97904.38;6246265;23;20008;-79
2022/11/16 04:49:43;;;;;;;0.00;0.00;;;;;;;7.49;100.00;97900.03;6223560;22;19996;-78
2022/11/16 04:52:09;;;;;;;0.00;0.00;;;;;;;7.55;100.00;97905.34;6198810;23;20012;-78
2022/11/16 04:54:34;;;;;;;0.00;0.00;;;;;;;7.54;100.00;97898.31;6193996;23;20430;-80
2022/11/16 04:57:02;;;;;;;0.00;0.00;;;;;;;7.48;100.00;97887.53;6199327;23;20031;-78
2022/11/16 04:59:28;;;;;;;0.00;0.00;;;;;;;7.50;100.00;97885.34;6218181;23;20007;-79
2022/11/16 05:02:09;;;;;;;0.00;0.00;;;;;;;7.49;100.00;97872.84;6252674;22;20008;-78
2022/11/16 05:04:42;;;;;;;0.00;0.00;;;;;;;7.60;100.00;97888.91;6219395;23;20023;-78
2022/11/16 05:07:12;;;;;;;0.00;0.00;;;;;;;7.69;100.00;97881.59;6223995;23;20031;-77
2022/11/16 05:09:46;;;;;;;0.00;0.00;;;;;;;7.71;100.00;97873.13;6220628;23;20019;-78
2022/11/16 05:12:25;;;;;;;0.00;0.00;;;;;;;7.76;100.00;97868.38;6251903;22;20335;-78
2022/11/16 05:14:54;;;;;;;0.00;0.00;;;;;;;7.88;100.00;97872.47;6219957;23;20028;-78
2022/11/16 05:17:27;;;;;;;0.00;0.00;;;;;;;7.89;100.00;97874.06;6225633;23;20070;-79
2022/11/16 05:22:40;;;;;;;0.00;0.00;;;;;;;7.94;100.00;97860.31;6223786;23;20032;-77
2022/11/16 05:25:09;;;;;;;0.00;0.00;;;;;;;8.00;100.00;97859.06;6165060;23;20721;-77
2022/11/16 05:27:37;;;;;;;0.00;0.00;;;;;;;8.04;100.00;97857.34;6196797;23;20012;-77
2022/11/16 05:30:05;;;;;;;0.00;0.00;;;;;;;7.96;100.00;97850.75;6187831;23;19996;-76
2022/11/16 05:32:33;;;;;;;0.00;0.00;;;;;;;7.89;100.00;97846.88;6222271;23;20442;-78
2022/11/16 05:34:58;;;;;;;0.00;0.00;;;;;;;7.97;100.00;97854.25;6189714;23;20001;-80
2022/11/16 05:37:29;;;;;;;0.00;0.00;;;;;;;7.95;100.00;97845.63;6169698;23;20323;-78
2022/11/16 05:39:55;;;;;;;0.00;0.00;;;;;;;8.01;100.00;97855.25;6194626;23;20058;-77
2022/11/16 05:42:23;;;;;;;0.00;0.00;;;;;;;7.92;100.00;97840.78;6190577;23;20019;-77
2022/11/16 05:44:54;;;;;;;0.00;0.00;;;;;;;7.93;100.00;97839.66;6221447;23;20008;-77
2022/11/16 05:47:22;;;;;;;0.00;0.00;;;;;;;7.99;100.00;97849.31;6216407;23;20020;-78
2022/11/16 05:49:48;;;;;;;0.00;0.00;;;;;;;7.98;100.00;97842.25;6195142;23;20009;-78
2022/11/16 05:52:13;;;;;;;0.00;0.00;;;;;;;7.98;100.00;97845.00;6191933;23;20007;-78
2022/11/16 05:54:41;;;;;;;0.00;0.00;;;;;;;8.03;100.00;97850.28;6193807;23;20009;-78
2022/11/16 05:57:14;;;;;;;0.00;0.00;;;;;;;8.14;100.00;97848.91;6218642;23;20043;-77
2022/11/16 05:59:45;;;;;;;0.00;0.00;;;;;;;8.16;100.00;97846.69;6169284;23;20001;-78
2022/11/16 06:02:18;;;;;;;0.00;0.00;;;;;;;8.21;100.00;97865.59;6219340;22;20008;-78
2022/11/16 06:04:43;;;;;;;0.00;0.00;;;;;;;8.08;100.00;97871.94;6190176;23;20004;-78
2022/11/16 06:07:16;;;;;;;0.00;0.00;;;;;;;8.10;100.00;97880.59;6172287;23;20039;-77
2022/11/16 06:09:42;;;;;;;0.00;0.00;;;;;;;7.94;100.00;97876.66;6191758;23;20028;-77
2022/11/16 06:12:08;;;;;;;0.38;0.38;;;;;;;7.48;100.00;97859.56;6220468;23;20000;-78
2022/11/16 06:14:42;;;;;;;0.00;0.00;;;;;;;7.15;100.00;97879.59;6191942;23;20087;-77
2022/11/16 06:17:15;;;;;;;0.00;0.00;;;;;;;6.81;100.00;97869.16;6169286;23;20000;-77
2022/11/16 06:19:40;;;;;;;0.00;0.00;;;;;;;6.70;100.00;97878.63;6190057;23;20032;-78
2022/11/16 06:22:08;;;;;;;0.00;0.00;;;;;;;6.55;100.00;97866.97;6188902;23;20394;-77
2022/11/16 06:24:34;;;;;;;0.00;0.00;;;;;;;6.55;100.00;97872.41;6189486;23;20084;-77
2022/11/16 06:27:02;;;;;;;0.00;0.00;;;;;;;6.50;100.00;97858.94;6192721;23;20733;-78
2022/11/16 06:29:27;;;;;;;0.00;0.00;;;;;;;6.57;100.00;97866.66;6194290;23;20009;-77
2022/11/16 06:31:53;;;;;;;0.00;0.00;;;;;;;6.55;100.00;97866.16;6191406;23;20013;-78
2022/11/16 06:34:21;;;;;;;0.00;0.00;;;;;;;6.60;100.00;97869.59;6191328;23;20510;-77
2022/11/16 06:36:58;;;;;;;0.00;0.00;;;;;;;6.59;100.00;97864.47;6191519;23;20044;-78
2022/11/16 06:39:26;;;;;;;0.00;0.00;;;;;;;6.56;100.00;97854.22;6193981;23;20008;-78
2022/11/16 06:41:51;;;;;;;0.00;0.00;;;;;;;6.58;100.00;97849.28;6191457;23;20058;-77
2022/11/16 06:44:17;;;;;;;0.00;0.00;;;;;;;6.71;100.00;97870.19;6197125;23;20013;-79
2022/11/16 06:46:42;;;;;;;0.00;0.00;;;;;;;6.74;100.00;97877.72;6193929;23;19989;-79
2022/11/16 06:49:08;;;;;;;0.00;0.00;;;;;;;6.74;100.00;97874.22;6193259;23;20327;-78
2022/11/16 06:51:35;;;;;;;0.00;0.00;;;;;;;6.80;100.00;97871.09;6194103;23;20008;-78
2022/11/16 06:54:03;;;;;;;0.00;0.00;;;;;;;6.88;100.00;97868.75;6158977;23;20015;-79
2022/11/16 06:56:32;;;;;;;0.00;0.00;;;;;;;6.89;100.00;97862.22;6190165;23;20071;-79
2022/11/16 06:59:07;;;;;;;0.00;0.00;;;;;;;6.85;100.00;97858.50;6186438;23;20044;-78
2022/11/16 07:01:36;;;;;;;0.00;0.00;;;;;;;6.76;100.00;97856.50;6187070;23;20005;-78
2022/11/16 07:04:10;;;;;;;0.00;0.00;;;;;;;6.75;100.00;97870.41;6191608;23;20000;-78
2022/11/16 07:06:48;;;;;;;0.00;0.00;;;;;;;6.70;100.00;97865.88;6189036;23;20003;-77
2022/11/16 07:09:16;;;;;;;0.00;0.00;;;;;;;6.63;100.00;97874.41;6196516;23;20050;-79
2022/11/16 07:11:43;;;;;;;0.00;0.00;;;;;;;6.54;100.00;97864.56;6191481;23;20012;-77
2022/11/16 07:14:10;;;;;;;0.00;0.00;;;;;;;6.50;100.00;97887.97;6190491;23;20012;-77
2022/11/16 07:16:36;;;;;;;0.00;0.00;;;;;;;6.52;100.00;97902.06;6190298;23;20818;-76
2022/11/16 07:19:01;;;;;;;0.00;0.00;;;;;;;6.49;100.00;97899.97;6194127;23;20012;-76
2022/11/16 07:21:27;;;;;;;0.00;0.00;;;;;;;6.50;100.00;97906.97;6175406;23;20456;-75
2022/11/16 07:23:53;;;;;;;0.00;0.00;;;;;;;6.56;100.00;97900.38;6223598;23;20083;-77
2022/11/16 07:26:19;;;;;;;0.00;0.00;;;;;;;6.60;100.00;97906.78;6249738;23;20011;-76
2022/11/16 07:28:44;;;;;;;0.00;0.00;;;;;;;6.63;100.00;97900.78;6220598;23;20063;-75
2022/11/16 07:31:12;;;;;;;0.00;0.00;;;;;;;6.62;100.00;97897.25;6223630;23;20027;-76
2022/11/16 07:33:40;;;;;;;0.00;0.00;;;;;;;6.68;100.00;97889.78;6220477;23;20252;-74
2022/11/16 07:36:13;;;;;;;0.00;0.00;;;;;;;6.76;100.00;97893.72;6195819;23;20065;-76
2022/11/16 07:38:39;;;;;;;0.00;0.00;;;;;;;6.70;100.00;97887.59;6245063;23;20036;-77
2022/11/16 07:41:09;;;;;;;0.00;0.00;;;;;;;6.63;100.00;97889.91;6197326;23;20402;-76
2022/11/16 07:43:35;;;;;;;0.00;0.00;;;;;;;6.49;100.00;97883.69;6219815;23;20004;-78
2022/11/16 07:46:12;;;;;;;0.00;0.00;;;;;;;6.38;100.00;97885.75;6221683;23;20019;-77
2022/11/16 07:48:38;;;;;;;0.00;0.00;;;;;;;6.31;100.00;97882.63;6219027;23;20000;-78
2022/11/16 07:51:06;;;;;;;0.00;0.00;;;;;;;6.26;100.00;97887.09;6223112;23;20034;-77
2022/11/16 07:53:35;;;;;;;0.00;0.00;;;;;;;6.22;100.00;97885.25;6225110;23;20008;-77
2022/11/16 07:56:03;;;;;;;0.00;0.00;;;;;;;6.24;100.00;97883.06;6197651;23;20087;-78
2022/11/16 07:58:32;;;;;;;0.00;0.00;;;;;;;6.21;100.00;97895.31;6253101;23;20027;-78
2022/11/16 08:01:05;;;;;;;0.00;0.00;;;;;;;6.20;100.00;97892.88;6219983;23;20012;-78
2022/11/16 08:03:31;;;;;;;0.00;0.00;;;;;;;6.25;100.00;97895.50;6223911;23;20023;-80
2022/11/16 08:06:31;;;;;;;0.00;0.00;;;;;;;6.20;100.00;97892.88;6223652;23;20019;-80
2022/11/16 08:09:02;;;;;;;0.00;0.00;;;;;;;6.15;100.00;97882.94;6224802;23;20334;-80
2022/11/16 08:11:50;;;;;;;0.00;0.00;;;;;;;6.24;100.00;97894.69;6200222;23;20004;-80
2022/11/16 08:14:31;;;;;;;0.00;0.00;;;;;;;6.25;100.00;97895.50;6225271;23;20004;-81
2022/11/16 08:16:58;;;;;;;0.00;0.00;;;;;;;6.28;100.00;97897.63;6200404;23;20008;-78
2022/11/16 08:19:29;;;;;;;0.00;0.00;;;;;;;6.26;100.00;97888.97;6255549;23;19996;-85
2022/11/16 08:21:57;;;;;;;0.00;0.00;;;;;;;6.29;100.00;97891.09;6224509;23;20009;-85
2022/11/16 08:24:25;;;;;;;0.00;0.00;;;;;;;6.31;100.00;97888.88;6227563;23;20318;-85
2022/11/16 08:26:53;;;;;;;0.00;0.00;;;;;;;6.24;100.00;97891.19;6225507;23;20051;-84
2022/11/16 08:29:18;;;;;;;0.00;0.00;;;;;;;6.27;100.00;97896.81;6225026;23;20000;-84
2022/11/16 08:31:47;;;;;;;0.00;0.00;;;;;;;6.23;100.00;97897.72;6200618;23;20043;-83
2022/11/16 08:34:13;;;;;;;0.00;0.00;;;;;;;6.29;100.00;97901.94;6201420;23;20004;-84
2022/11/16 08:36:41;;;;;;;0.00;0.00;;;;;;;6.43;100.00;97907.41;6199650;23;20011;-84
2022/11/16 08:39:06;;;;;;;0.00;0.00;;;;;;;6.73;100.00;97906.00;6222234;23;20002;-84
2022/11/16 08:41:36;;;;;;;0.00;0.00;;;;;;;7.05;100.00;97900.72;6228748;23;19992;-84
2022/11/16 08:44:03;;;;;;;0.00;0.00;;;;;;;7.40;100.00;97896.41;6226747;23;20001;-83
2022/11/16 08:46:28;;;;;;;0.00;0.00;;;;;;;7.77;100.00;97899.91;6224227;23;20054;-85
2022/11/16 08:48:55;;;;;;;1.38;1.35;;;;;;;8.06;100.00;97884.25;6223122;22;20008;-80
2022/11/16 08:51:21;;;;;;;0.00;0.00;;;;;;;8.30;100.00;97883.91;6222135;22;19991;-81
2022/11/16 08:53:50;;;;;;;0.00;0.00;;;;;;;8.22;100.00;97888.19;6223680;23;19996;-89
2022/11/16 08:56:28;;;;;;;;;;;;;;;;;;;;;
2022/11/16 08:59:17;;;;;;;0.00;0.00;;;;;;;8.04;100.00;97879.13;6227998;22;20040;-88
2022/11/16 09:01:55;;;;;;;;;;;;;;;;;;;;;
2022/11/16 09:04:42;;;;;;;0.00;0.00;;;;;;;7.88;100.00;97878.69;6248983;22;20031;-82
2022/11/16 09:07:07;;;;;;;0.00;0.00;;;;;;;7.85;100.00;97901.88;6251582;22;20031;-83
2022/11/16 09:09:35;;;;;;;0.00;0.00;;;;;;;7.84;100.00;97911.19;6197403;23;20450;-83
2022/11/16 09:12:03;;;;;;;0.00;0.00;;;;;;;7.88;100.00;97905.13;6225486;23;20066;-77
2022/11/16 09:14:29;;;;;;;0.00;0.00;;;;;;;7.96;100.00;97907.09;6220689;22;20094;-79
2022/11/16 09:17:06;;;;;;;0.00;0.00;;;;;;;8.08;100.00;97904.59;6197704;23;20032;-82
2022/11/16 09:19:31;;;;;;;0.00;0.00;;;;;;;9.20;100.00;97904.56;6224021;23;19991;-81
2022/11/16 09:21:57;;;;;;;0.00;0.00;;;;;;;13.10;100.00;97911.09;6217915;23;20000;-77
2022/11/16 09:24:22;;;;;;;0.00;0.00;;;;;;;15.79;100.00;97910.25;6170650;23;20039;-78
2022/11/16 09:26:50;;;;;;;0.00;0.00;;;;;;;18.09;100.00;97909.63;6191911;23;20643;-76
2022/11/16 09:29:15;;;;;;;0.00;0.00;;;;;;;19.92;100.00;97909.50;6197627;23;20382;-77
2022/11/16 09:31:41;;;;;;;0.00;0.00;;;;;;;21.35;100.00;97922.84;6218791;23;20008;-77
2022/11/16 09:34:16;;;;;;;0.00;0.00;;;;;;;21.45;100.00;97915.69;6225067;23;20009;-82
2022/11/16 09:36:56;;;;;;;0.00;0.00;;;;;;;20.95;100.00;97897.06;6198465;23;20008;-81
2022/11/16 09:39:34;;;;;;;;;;;;;;;;;;;;;
2022/11/16 09:42:09;;;;;;;0.00;0.00;;;;;;;25.22;100.00;97902.22;6248308;23;20028;-84
2022/11/16 09:45:07;;;;;;;;;;;;;;;26.74;100.00;97902.78;6227073;23;20004;-83
2022/11/16 09:48:07;;;;;;;0.00;0.00;;;;;;;28.29;91.90;97892.28;6227035;22;20263;-83
2022/11/16 09:50:46;;;;;;;0.00;0.00;;;;;;;28.84;89.46;97881.75;6135805;23;20433;-82
2022/11/16 09:53:40;;;;;;;0.00;0.00;;;;;;;27.89;84.01;97885.00;6158101;23;20034;-77
2022/11/16 09:56:11;;;;;;;0.00;0.00;;;;;;;24.62;90.50;97873.25;6225234;23;20018;-80
2022/11/16 09:59:04;;;;;;;0.00;0.00;;;;;;;20.49;93.05;97865.28;6223283;23;20035;-79
2022/11/16 10:01:41;;;;;;;0.00;0.00;;;;;;;17.36;100.00;97860.94;6220813;23;20016;-79
2022/11/16 10:07:50;;;;;;;0.00;0.00;;;;;;;13.66;100.00;97859.44;6240632;22;20008;-82
2022/11/16 10:10:32;;;;;;;0.00;0.00;;;;;;;12.70;100.00;97870.69;6250790;22;20016;-80
2022/11/16 10:13:25;;;;;;;;;;;;;;;;;;;;;
2022/11/16 10:16:08;;;;;;;0.00;0.00;;;;;;;13.13;100.00;97875.88;6255313;23;20497;-82
2022/11/16 10:19:17;;;;;;;0.00;0.00;;;;;;;14.84;100.00;97867.25;6225372;23;20442;-83
2022/11/16 10:22:19;;;;;;;0.00;0.00;;;;;;;17.80;100.00;97884.41;6249916;22;20024;-83
2022/11/16 10:25:06;;;;;;;0.00;0.00;;;;;;;16.50;100.00;97868.69;6227160;23;20015;-85
2022/11/16 10:28:14;;;;;;;0.00;0.00;;;;;;;20.69;100.00;97868.50;6229201;23;20004;-85
2022/11/16 10:30:54;;;;;;;0.00;0.00;;;;;;;19.27;100.00;97868.38;6227973;23;20011;-83
2022/11/16 10:33:33;;;;;;;0.00;0.00;;;;;;;17.94;100.00;97859.69;6226817;23;20012;-85
2022/11/16 10:36:28;;;;;;;0.00;0.00;;;;;;;17.18;100.00;97862.66;6228652;23;19996;-85
2022/11/16 10:39:41;;;;;;;0.00;0.00;;;;;;;16.74;100.00;97850.94;6226061;23;20118;-84
2022/11/16 10:42:38;;;;;;;0.00;0.00;;;;;;;21.15;100.00;97874.44;6226065;23;20016;-84
2022/11/16 10:45:42;;;;;;;0.00;0.00;;;;;;;20.35;100.00;97865.25;6227912;23;20008;-86
2022/11/16 10:48:52;;;;;;;0.00;0.00;;;;;;;18.38;100.00;97851.84;6232278;22;20447;-87
2022/11/16 10:51:37;;;;;;;0.00;0.00;;;;;;;16.51;100.00;97853.69;6113134;23;20013;-84
2022/11/16 10:54:19;;;;;;;0.00;0.00;;;;;;;15.50;100.00;97854.53;6217583;23;20094;-84
2022/11/16 10:56:49;;;;;;;0.00;0.00;;;;;;;14.65;100.00;97854.22;6228241;22;20015;-82
2022/11/16 10:59:18;;;;;;;0.00;0.00;;;;;;;13.89;100.00;97852.25;6225749;23;20003;-82
2022/11/16 11:01:56;;;;;;;0.00;0.00;;;;;;;13.48;100.00;97864.41;6226599;23;20020;-81
2022/11/16 11:04:27;;;;;;;0.00;0.00;;;;;;;13.20;100.00;97857.72;6199317;23;20000;-81
2022/11/16 11:06:55;;;;;;;0.00;0.00;;;;;;;13.38;100.00;97850.03;6225975;23;19999;-82
2022/11/16 11:09:40;;;;;;;0.00;0.00;;;;;;;14.33;100.00;97854.19;6225057;23;20439;-82
2022/11/16 11:12:38;;;;;;;0.15;0.15;;;;;;;15.51;100.00;97839.63;6224698;23;20009;-82
2022/11/16 11:15:10;;;;;;;0.00;0.00;;;;;;;14.93;100.00;97837.56;6169041;23;20008;-82
2022/11/16 11:17:38;;;;;;;0.00;0.00;;;;;;;14.34;100.00;97821.97;6224511;22;20008;-79
2022/11/16 11:20:27;;;;;;;0.00;0.00;;;;;;;14.22;100.00;97809.13;6220497;23;20015;-78
2022/11/16 11:23:03;;;;;;;0.00;0.00;;;;;;;15.78;100.00;97803.97;6226533;23;20050;-83
2022/11/16 11:25:37;;;;;;;0.00;0.00;;;;;;;20.54;100.00;97819.69;6224939;23;19996;-83
2022/11/16 11:28:05;;;;;;;0.00;0.00;;;;;;;24.37;100.00;97829.69;6226596;23;19998;-81
2022/11/16 11:30:35;;;;;;;0.22;0.22;;;;;;;26.43;90.58;97838.63;6223654;23;20008;-83
2022/11/16 11:33:07;;;;;;;0.00;0.00;;;;;;;26.44;87.09;97833.81;6201276;22;20008;-83
2022/11/16 11:35:41;;;;;;;0.00;0.00;;;;;;;24.78;92.57;97809.13;6220827;22;20116;-84
2022/11/16 11:38:23;;;;;;;0.00;0.00;;;;;;;23.16;96.60;97800.16;6227515;22;20015;-84
2022/11/16 11:41:26;;;;;;;0.00;0.00;;;;;;;20.82;99.60;97790.34;6227180;22;20048;-85
2022/11/16 11:44:08;;;;;;;0.00;0.00;;;;;;;18.91;100.00;97778.75;6179333;23;20014;-83
2022/11/16 11:46:36;;;;;;;0.00;0.00;;;;;;;18.16;100.00;97774.19;6226644;23;19988;-82
2022/11/16 11:49:18;;;;;;;0.00;0.00;;;;;;;17.83;100.00;97764.78;6227040;23;20016;-83
2022/11/16 11:51:53;;;;;;;0.22;0.22;;;;;;;16.83;100.00;97750.53;6225612;23;20011;-83
2022/11/16 11:54:40;;;;;;;0.00;0.00;;;;;;;16.06;100.00;97758.78;6204006;23;20015;-82
2022/11/16 11:57:19;;;;;;;0.00;0.00;;;;;;;15.95;100.00;97746.81;6224840;23;20008;-84
2022/11/16 11:59:55;;;;;;;;;;;;;;;;;;;;;
2022/11/16 12:02:44;;;;;;;0.00;0.00;;;;;;;15.35;100.00;97742.53;6252176;23;20032;-83
2022/11/16 12:05:22;;;;;;;0.00;0.00;;;;;;;15.16;100.00;97740.56;6225843;23;20423;-81
2022/11/16 12:08:02;;;;;;;0.00;0.00;;;;;;;14.75;100.00;97740.88;6224054;23;20102;-80
2022/11/16 12:10:46;;;;;;;;;;;;;;;;;;;;;
2022/11/16 12:13:46;;;;;;;0.30;0.30;;;;;;;14.01;100.00;97743.44;6251795;23;20388;-82
2022/11/16 12:16:28;;;;;;;0.00;0.00;;;;;;;14.10;100.00;97731.09;6225543;23;20233;-82
2022/11/16 12:19:14;;;;;;;0.00;0.00;;;;;;;14.08;100.00;97722.44;6230253;23;20331;-81
2022/11/16 12:25:27;;;;;;;0.00;0.00;;;;;;;13.81;100.00;97706.84;6252277;23;20003;-81
2022/11/16 12:28:30;;;;;;;0.00;0.00;;;;;;;13.82;100.00;97703.72;6226247;23;20000;-83
2022/11/16 12:31:52;;;;;;;;;;;;;;;;;;;;;
2022/11/16 12:34:36;;;;;;;0.00;0.00;;;;;;;14.36;100.00;97694.03;6255316;23;20040;-88
2022/11/16 12:37:33;;;;;;;;;;;;;;;;;;;;;
2022/11/16 12:40:20;;;;;;;0.00;0.00;;;;;;;14.01;100.00;97700.28;6255167;22;20016;-89
2022/11/16 12:42:57;;;;;;;0.00;0.00;;;;;;;13.86;100.00;97688.13;6230530;23;20008;-88
2022/11/16 12:45:23;;;;;;;0.00;0.00;;;;;;;13.67;100.00;97688.84;6228314;22;20095;-89
2022/11/16 12:48:13;;;;;;;0.00;0.00;;;;;;;13.43;100.00;97681.53;6229276;22;19995;-90
2022/11/16 12:50:47;;;;;;;0.00;0.00;;;;;;;13.03;100.00;97663.19;6226845;23;20015;-87
2022/11/16 12:53:18;;;;;;;0.00;0.00;;;;;;;12.80;100.00;97671.97;6229183;23;20014;-86
2022/11/16 12:56:16;;;;;;;0.00;0.00;;;;;;;12.56;100.00;97650.91;6228349;23;20080;-88
2022/11/16 12:59:03;;;;;;;0.00;0.00;;;;;;;12.42;100.00;97650.50;6194582;23;20061;-88
2022/11/16 13:01:35;;;;;;;0.00;0.00;;;;;;;12.30;100.00;97646.63;6229613;23;20014;-88
2022/11/16 13:04:41;;;;;;;0.00;0.00;;;;;;;12.31;100.00;97652.88;6230630;23;20012;-88
2022/11/16 13:07:31;;;;;;;;;;;;;;;;;;;;;
2022/11/16 13:10:06;;;;;;;0.00;0.00;;;;;;;12.26;100.00;97623.00;6252252;23;20019;-85